Time;durP1;ratioP1;P1;durP2;ratioP2;P2;SDS_P1;SDS_P2;PMS_P1;PMS_P2;Temp;Humidity;BMP_temperature;BMP_pressure;BME280_temperature;BME280_humidity;BME280_pressure;Samples;Min_cycle;Max_cycle;Signal;HPM_P1;HPM_P2
2023/12/01 00:00:58;;;;;;;9.60;7.60;;;;;;;24.15;29.97;100316.94;103132;1290;72526;-81
2023/12/01 00:03:24;;;;;;;10.60;7.70;;;;;;;24.15;29.88;100325.91;103095;1294;61416;-81
2023/12/01 00:05:50;;;;;;;9.30;7.20;;;;;;;24.15;29.89;100326.41;103166;1294;61391;-81
2023/12/01 00:08:15;;;;;;;10.00;7.00;;;;;;;24.15;29.90;100320.15;103148;1294;61364;-81
2023/12/01 00:10:42;;;;;;;8.70;7.20;;;;;;;24.15;29.89;100322.67;103031;1293;61946;-81
2023/12/01 00:13:07;;;;;;;10.40;7.90;;;;;;;24.15;29.90;100327.48;103293;1295;61422;-81
2023/12/01 00:15:33;;;;;;;10.80;7.80;;;;;;;24.15;29.91;100329.29;103242;1294;61398;-81
2023/12/01 00:17:59;;;;;;;10.30;7.30;;;;;;;24.15;29.90;100329.83;103097;1289;61383;-81
2023/12/01 00:20:24;;;;;;;10.00;7.60;;;;;;;24.16;29.94;100331.59;103183;1294;61413;-81
2023/12/01 00:22:52;;;;;;;9.80;7.60;;;;;;;24.16;29.85;100332.10;103158;1293;61857;-81
2023/12/01 00:25:17;;;;;;;10.00;7.30;;;;;;;24.16;29.93;100331.77;103128;1291;61373;-81
2023/12/01 00:27:43;;;;;;;8.70;6.90;;;;;;;24.16;29.88;100332.98;103118;1293;61504;-81
2023/12/01 00:30:09;;;;;;;11.30;7.30;;;;;;;24.16;29.85;100336.24;103084;1293;62504;-81
2023/12/01 00:32:35;;;;;;;9.70;7.70;;;;;;;24.14;29.87;100334.39;103263;1293;61267;-81
2023/12/01 00:35:00;;;;;;;8.80;7.00;;;;;;;24.14;29.94;100333.40;103242;1289;61423;-81
2023/12/01 00:37:27;;;;;;;8.80;6.90;;;;;;;24.12;29.91;100339.58;103102;1293;74549;-81
2023/12/01 00:39:53;;;;;;;9.20;7.40;;;;;;;24.10;29.93;100338.73;103138;1289;61930;-81
2023/12/01 00:42:18;;;;;;;10.90;8.00;;;;;;;24.08;29.95;100335.34;103232;1294;61528;-81
2023/12/01 00:44:47;;;;;;;9.90;7.30;;;;;;;24.05;29.98;100328.92;103176;1290;61344;-81
2023/12/01 00:47:15;;;;;;;10.10;7.40;;;;;;;24.02;30.04;100317.19;103004;1293;73233;-81
2023/12/01 00:49:41;;;;;;;8.90;7.10;;;;;;;23.99;29.94;100309.16;103277;1295;62519;-81
2023/12/01 00:52:06;;;;;;;9.80;7.50;;;;;;;23.97;29.97;100301.48;103455;1295;61432;-81
2023/12/01 00:54:33;;;;;;;8.80;7.00;;;;;;;23.93;30.09;100297.63;103225;1304;61379;-81
2023/12/01 00:56:59;;;;;;;9.80;7.50;;;;;;;23.92;30.04;100294.37;103096;1293;63025;-81
2023/12/01 00:59:25;;;;;;;10.50;7.20;;;;;;;23.91;30.05;100286.30;103156;1293;61367;-81
2023/12/01 01:01:51;;;;;;;9.80;7.30;;;;;;;23.92;30.04;100282.52;103148;1292;61399;-81
2023/12/01 01:04:16;;;;;;;11.20;7.90;;;;;;;23.92;30.04;100288.96;103166;1293;61464;-81
2023/12/01 01:06:43;;;;;;;9.50;7.30;;;;;;;23.92;30.08;100292.73;103113;1294;61397;-81
2023/12/01 01:09:09;;;;;;;9.60;7.50;;;;;;;23.93;30.07;100295.49;103105;1290;61399;-81
2023/12/01 01:11:35;;;;;;;9.50;7.60;;;;;;;23.94;30.04;100299.73;103160;1294;62063;-81
2023/12/01 01:14:00;;;;;;;10.40;7.80;;;;;;;23.95;29.98;100293.04;103092;1291;61374;-81
2023/12/01 01:16:26;;;;;;;10.50;7.60;;;;;;;23.96;29.99;100289.71;103146;1295;61492;-81
2023/12/01 01:18:52;;;;;;;10.40;7.50;;;;;;;23.97;30.08;100287.67;103089;1293;61403;-81
2023/12/01 01:21:17;;;;;;;9.70;7.30;;;;;;;23.98;30.03;100291.09;103143;1296;62416;-81
2023/12/01 01:23:43;;;;;;;9.20;7.20;;;;;;;23.99;30.05;100287.77;103128;1290;61848;-81
2023/12/01 01:26:09;;;;;;;10.60;7.70;;;;;;;24.00;30.01;100282.48;103056;1289;61438;-81
2023/12/01 01:28:35;;;;;;;11.10;8.20;;;;;;;24.01;29.92;100273.94;103217;1295;61958;-81
2023/12/01 01:31:02;;;;;;;9.00;7.30;;;;;;;24.02;30.02;100266.30;103275;1291;61303;-81
2023/12/01 01:33:30;;;;;;;10.30;7.80;;;;;;;24.03;30.05;100261.23;103087;1288;62362;-81
2023/12/01 01:36:01;;;;;;;10.40;7.70;;;;;;;24.04;29.94;100267.74;103097;1289;61285;-81
2023/12/01 01:38:26;;;;;;;9.90;7.80;;;;;;;24.05;29.98;100264.45;103107;1293;61412;-81
2023/12/01 01:40:52;;;;;;;10.30;8.10;;;;;;;24.06;29.98;100263.43;103073;1293;61945;-81
2023/12/01 01:43:23;;;;;;;9.60;7.80;;;;;;;24.06;30.01;100260.70;103077;1293;61387;-81
2023/12/01 01:46:18;;;;;;;10.60;7.80;;;;;;;24.07;29.99;100254.66;103243;1295;61450;-82
2023/12/01 01:48:44;;;;;;;10.20;8.00;;;;;;;24.08;30.04;100249.76;102780;1299;72523;-82
2023/12/01 01:51:10;;;;;;;9.70;7.10;;;;;;;24.08;29.88;100249.00;102688;1294;61496;-82
2023/12/01 01:53:41;;;;;;;9.50;7.80;;;;;;;24.09;29.99;100250.68;102832;1298;61326;-82
2023/12/01 01:56:12;;;;;;;9.70;7.70;;;;;;;24.11;29.92;100251.85;102886;1295;61737;-82
2023/12/01 01:58:38;;;;;;;11.90;7.60;;;;;;;24.11;29.92;100254.33;102679;1300;72305;-82
2023/12/01 02:01:07;;;;;;;9.10;7.20;;;;;;;24.12;29.95;100252.45;102661;1297;61466;-82
2023/12/01 02:03:33;;;;;;;9.00;7.40;;;;;;;24.12;29.97;100252.45;102626;1297;61716;-82
2023/12/01 02:05:58;;;;;;;10.20;7.80;;;;;;;24.13;29.97;100247.16;102633;1303;61858;-81
2023/12/01 02:08:25;;;;;;;9.90;7.50;;;;;;;24.13;29.93;100246.43;102697;1301;61315;-81
2023/12/01 02:10:55;;;;;;;10.00;8.00;;;;;;;24.14;29.96;100247.27;102661;1297;61449;-81
2023/12/01 02:13:21;;;;;;;10.50;7.60;;;;;;;24.14;29.88;100243.98;102653;1297;61412;-81
2023/12/01 02:15:48;;;;;;;10.40;7.70;;;;;;;24.14;29.90;100240.02;102676;1299;61535;-82
2023/12/01 02:18:24;;;;;;;11.10;7.90;;;;;;;24.15;29.91;100236.19;102633;1297;72333;-81
2023/12/01 02:20:54;;;;;;;10.30;7.30;;;;;;;24.15;29.88;100229.34;102488;1303;74522;-81
2023/12/01 02:23:20;;;;;;;11.70;8.00;;;;;;;24.15;29.91;100227.02;102558;1303;61282;-81
2023/12/01 02:25:46;;;;;;;10.00;7.60;;;;;;;24.16;29.87;100226.05;102730;1299;61771;-81
2023/12/01 02:28:12;;;;;;;10.20;7.90;;;;;;;24.15;29.88;100220.11;102925;1298;61424;-81
2023/12/01 02:30:38;;;;;;;11.30;7.50;;;;;;;24.16;29.78;100221.14;103033;1293;61424;-81
2023/12/01 02:33:03;;;;;;;10.90;8.00;;;;;;;24.16;29.92;100215.74;103039;1296;61392;-81
2023/12/01 02:35:32;;;;;;;10.10;7.80;;;;;;;24.17;29.87;100220.54;103037;1292;61463;-82
2023/12/01 02:37:58;;;;;;;9.40;7.60;;;;;;;24.17;29.83;100219.96;102812;1297;61508;-81
2023/12/01 02:40:24;;;;;;;10.90;8.00;;;;;;;24.17;29.89;100209.90;103012;1296;61457;-81
2023/12/01 02:42:50;;;;;;;11.10;8.00;;;;;;;24.18;29.83;100207.34;103156;1289;61358;-81
2023/12/01 02:45:17;;;;;;;9.90;7.30;;;;;;;24.18;29.82;100212.02;103124;1290;61450;-81
2023/12/01 02:47:45;;;;;;;10.90;8.10;;;;;;;24.18;29.87;100214.09;103051;1290;61303;-81
2023/12/01 02:50:12;;;;;;;9.60;7.50;;;;;;;24.18;29.80;100211.39;103111;1289;61324;-82
2023/12/01 02:52:41;;;;;;;10.30;8.00;;;;;;;24.18;29.81;100206.73;103103;1289;61409;-81
2023/12/01 02:55:08;;;;;;;9.70;7.50;;;;;;;24.18;29.77;100204.92;103155;1293;61409;-82
2023/12/01 02:57:37;;;;;;;10.30;7.70;;;;;;;24.19;29.88;100201.23;103141;1290;61650;-82
2023/12/01 03:00:08;;;;;;;10.30;8.00;;;;;;;24.20;29.84;100199.91;103043;1292;74619;-82
2023/12/01 03:02:35;;;;;;;10.80;8.30;;;;;;;24.20;29.84;100194.35;103066;1291;61416;-81
2023/12/01 03:05:00;;;;;;;10.30;8.10;;;;;;;24.20;29.86;100194.15;103180;1290;61316;-81
2023/12/01 03:07:30;;;;;;;11.40;8.00;;;;;;;24.21;29.82;100194.27;103155;1289;61821;-82
2023/12/01 03:09:55;;;;;;;9.50;7.40;;;;;;;24.21;29.85;100195.36;103067;1292;74514;-81
2023/12/01 03:12:21;;;;;;;11.50;7.60;;;;;;;24.21;29.88;100196.60;103142;1293;61401;-82
2023/12/01 03:14:47;;;;;;;9.90;7.60;;;;;;;24.21;29.83;100192.42;103065;1290;62522;-82
2023/12/01 03:17:12;;;;;;;11.20;7.50;;;;;;;24.21;29.79;100195.87;103207;1295;61284;-81
2023/12/01 03:19:38;;;;;;;10.20;8.20;;;;;;;24.21;29.79;100191.55;103143;1291;61409;-82
2023/12/01 03:22:03;;;;;;;10.20;8.20;;;;;;;24.22;29.71;100191.87;103022;1293;62393;-82
2023/12/01 03:24:29;;;;;;;10.30;8.20;;;;;;;24.22;29.81;100199.41;103108;1289;61404;-82
2023/12/01 03:26:55;;;;;;;11.00;7.50;;;;;;;24.22;29.85;100199.39;103092;1293;61408;-82
2023/12/01 03:29:20;;;;;;;11.00;7.70;;;;;;;24.22;29.75;100199.32;103351;1295;61291;-82
2023/12/01 03:31:46;;;;;;;10.10;7.90;;;;;;;24.22;29.72;100198.85;103199;1290;61543;-81
2023/12/01 03:34:12;;;;;;;10.50;8.00;;;;;;;24.22;29.85;100200.20;103137;1289;61471;-81
2023/12/01 03:36:37;;;;;;;10.00;7.90;;;;;;;24.22;29.79;100199.19;103189;1289;62039;-82
2023/12/01 03:39:03;;;;;;;10.00;8.00;;;;;;;24.22;29.83;100195.91;103165;1290;61335;-81
2023/12/01 03:41:29;;;;;;;11.40;8.00;;;;;;;24.23;29.78;100192.65;103170;1296;61556;-82
2023/12/01 03:43:54;;;;;;;9.50;7.60;;;;;;;24.23;29.81;100185.10;103011;1289;61855;-82
2023/12/01 03:46:20;;;;;;;12.10;7.60;;;;;;;24.23;29.75;100184.93;103024;1288;61386;-81
2023/12/01 03:48:45;;;;;;;9.80;8.00;;;;;;;24.22;29.74;100180.27;103193;1289;62388;-82
2023/12/01 03:51:11;;;;;;;10.10;8.00;;;;;;;24.22;29.72;100188.91;102905;1291;61297;-81
2023/12/01 03:53:37;;;;;;;11.80;8.00;;;;;;;24.23;29.75;100191.41;103027;1296;61482;-81
2023/12/01 03:56:04;;;;;;;10.90;8.10;;;;;;;24.23;29.89;100189.39;103174;1289;61431;-81
2023/12/01 03:58:29;;;;;;;10.50;8.00;;;;;;;24.23;29.66;100187.73;103182;1289;61362;-82
2023/12/01 04:00:55;;;;;;;12.90;7.90;;;;;;;24.23;29.72;100191.65;103070;1289;61421;-81
2023/12/01 04:03:24;;;;;;;10.00;7.80;;;;;;;24.24;29.73;100186.09;103057;1289;61290;-82
2023/12/01 04:05:50;;;;;;;8.70;7.40;;;;;;;24.24;29.70;100186.06;103065;1290;61323;-81
2023/12/01 04:08:16;;;;;;;10.20;7.90;;;;;;;24.23;29.77;100187.90;103177;1289;61335;-81
2023/12/01 04:10:42;;;;;;;10.20;8.30;;;;;;;24.24;29.76;100182.42;103044;1290;62776;-81
2023/12/01 04:13:08;;;;;;;10.80;7.90;;;;;;;24.24;29.72;100178.11;103129;1296;61621;-81
2023/12/01 04:15:36;;;;;;;10.90;8.20;;;;;;;24.24;29.77;100178.17;103036;1290;61380;-81
2023/12/01 04:18:06;;;;;;;10.00;7.90;;;;;;;24.24;29.69;100180.27;103106;1290;61325;-81
2023/12/01 04:20:38;;;;;;;10.00;7.90;;;;;;;24.24;29.69;100186.57;103333;1290;61375;-82
2023/12/01 04:23:11;;;;;;;10.80;8.10;;;;;;;24.24;29.66;100192.50;103044;1289;71317;-82
2023/12/01 04:25:38;;;;;;;11.10;7.70;;;;;;;24.24;29.71;100193.41;103047;1290;74286;-82
2023/12/01 04:28:04;;;;;;;9.60;7.70;;;;;;;24.24;29.74;100190.32;103081;1290;61318;-81
2023/12/01 04:30:30;;;;;;;10.30;7.90;;;;;;;24.25;29.67;100188.67;103225;1288;61424;-82
2023/12/01 04:32:57;;;;;;;10.80;7.90;;;;;;;24.25;29.69;100183.07;103021;1290;61479;-81
2023/12/01 04:35:27;;;;;;;10.90;7.90;;;;;;;24.25;29.78;100180.01;103215;1290;61863;-82
2023/12/01 04:37:53;;;;;;;9.90;7.80;;;;;;;24.26;29.58;100179.41;103171;1294;61402;-81
2023/12/01 04:40:19;;;;;;;9.10;7.50;;;;;;;24.25;29.66;100176.21;103143;1293;62329;-81
2023/12/01 04:42:46;;;;;;;10.20;7.90;;;;;;;24.26;29.71;100170.77;103009;1293;61428;-81
2023/12/01 04:45:13;;;;;;;9.90;7.80;;;;;;;24.25;29.70;100169.53;103122;1290;74461;-82
2023/12/01 04:47:42;;;;;;;9.00;7.50;;;;;;;24.26;29.73;100160.00;103142;1290;61358;-82
2023/12/01 04:50:12;;;;;;;;;;;;;;;24.25;29.73;100154.30;103192;1291;61285;-81
2023/12/01 04:53:05;;;;;;;10.30;7.80;;;;;;;24.23;29.74;100155.17;103051;1295;72545;-81
2023/12/01 04:55:31;;;;;;;10.30;8.10;;;;;;;24.24;29.72;100158.87;103211;1290;73483;-81
2023/12/01 04:57:56;;;;;;;10.10;7.70;;;;;;;24.24;29.71;100160.27;103076;1294;61388;-81
2023/12/01 05:00:25;;;;;;;10.80;8.10;;;;;;;24.25;29.67;100155.77;103093;1290;61377;-81
2023/12/01 05:02:52;;;;;;;10.20;8.20;;;;;;;24.25;29.72;100154.29;103114;1290;72399;-81
2023/12/01 05:05:21;;;;;;;11.20;7.80;;;;;;;24.25;29.65;100151.96;103115;1289;61409;-82
2023/12/01 05:07:49;;;;;;;10.80;8.20;;;;;;;24.25;29.59;100147.95;103200;1290;61425;-81
2023/12/01 05:10:16;;;;;;;9.70;7.50;;;;;;;24.26;29.68;100142.34;103061;1289;61293;-81
2023/12/01 05:12:50;;;;;;;11.00;8.40;;;;;;;24.26;29.70;100148.10;103095;1289;72566;-82
2023/12/01 05:15:17;;;;;;;10.60;7.90;;;;;;;24.26;29.80;100145.06;103216;1290;65852;-81
2023/12/01 05:17:48;;;;;;;10.60;8.10;;;;;;;24.26;29.72;100139.81;103077;1292;61306;-82
2023/12/01 05:20:27;;;;;;;10.30;7.90;;;;;;;24.27;29.73;100132.40;103109;1289;61476;-81
2023/12/01 05:22:59;;;;;;;10.60;7.50;;;;;;;24.27;29.62;100139.75;103111;1290;72431;-81
2023/12/01 05:25:32;;;;;;;10.80;8.00;;;;;;;24.27;29.63;100146.20;103086;1290;74477;-81
2023/12/01 05:27:59;;;;;;;9.50;7.90;;;;;;;24.28;29.67;100147.62;103121;1289;61338;-82
2023/12/01 05:30:29;;;;;;;11.20;8.50;;;;;;;24.28;29.68;100153.70;103076;1291;61384;-81
2023/12/01 05:32:54;;;;;;;;;;;;;;;24.28;29.59;100156.73;103217;1295;72469;-82
2023/12/01 05:35:20;;;;;;;10.90;8.20;;;;;;;24.25;29.73;100153.21;103103;1289;61453;-81
2023/12/01 05:37:50;;;;;;;10.60;8.00;;;;;;;24.27;29.68;100149.45;103056;1290;61316;-81
2023/12/01 05:40:20;;;;;;;10.60;7.00;;;;;;;24.27;29.71;100152.90;103177;1292;61307;-82
2023/12/01 05:42:49;;;;;;;10.10;7.90;;;;;;;24.27;29.65;100148.38;103088;1295;72796;-81
2023/12/01 05:45:16;;;;;;;9.70;7.60;;;;;;;24.27;29.68;100145.65;103309;1289;74385;-81
2023/12/01 05:47:43;;;;;;;9.80;7.90;;;;;;;24.27;29.64;100140.96;103178;1289;61410;-81
2023/12/01 05:50:16;;;;;;;10.20;7.90;;;;;;;24.28;29.66;100138.09;103153;1289;62871;-82
2023/12/01 05:52:43;;;;;;;10.50;7.60;;;;;;;24.28;29.69;100138.23;103153;1290;71672;-81
2023/12/01 05:55:14;;;;;;;12.20;8.50;;;;;;;24.28;29.58;100146.10;103128;1290;74616;-81
2023/12/01 05:57:49;;;;;;;10.40;7.90;;;;;;;24.29;29.64;100144.42;103073;1290;61388;-82
2023/12/01 06:00:20;;;;;;;8.90;7.20;;;;;;;24.29;29.60;100143.88;103085;1289;61322;-82
2023/12/01 06:02:46;;;;;;;10.70;7.60;;;;;;;24.29;29.61;100144.56;103122;1289;71444;-81
2023/12/01 06:05:12;;;;;;;9.30;7.40;;;;;;;24.30;29.57;100141.52;103153;1290;61300;-82
2023/12/01 06:07:41;;;;;;;9.00;7.20;;;;;;;24.30;29.58;100142.94;103155;1289;61494;-81
2023/12/01 06:10:09;;;;;;;9.10;7.10;;;;;;;24.31;29.58;100144.41;103125;1290;61846;-81
2023/12/01 06:12:37;;;;;;;10.00;7.80;;;;;;;24.31;29.65;100137.95;103258;1289;72423;-82
2023/12/01 06:15:09;;;;;;;10.10;7.20;;;;;;;24.31;29.59;100131.64;103180;1289;74652;-82
2023/12/01 06:17:36;;;;;;;9.30;7.60;;;;;;;24.31;29.63;100132.55;103228;1289;61362;-81
2023/12/01 06:20:03;;;;;;;9.80;7.50;;;;;;;24.32;29.51;100127.80;103194;1290;61320;-82
2023/12/01 06:22:29;;;;;;;9.20;7.60;;;;;;;24.32;29.54;100122.92;102814;1298;71183;-81
2023/12/01 06:24:54;;;;;;;9.20;7.00;;;;;;;24.33;29.60;100125.34;103099;1290;61495;-81
2023/12/01 06:27:20;;;;;;;9.20;7.20;;;;;;;24.33;29.55;100124.27;103262;1289;61418;-81
2023/12/01 06:29:46;;;;;;;11.20;7.40;;;;;;;24.33;29.56;100124.59;103123;1290;61329;-82
2023/12/01 06:32:13;;;;;;;9.90;7.40;;;;;;;24.34;29.55;100125.59;103370;1290;62403;-81
2023/12/01 06:34:42;;;;;;;9.90;7.40;;;;;;;24.35;29.54;100122.83;103211;1295;61321;-82
2023/12/01 06:37:07;;;;;;;10.10;7.50;;;;;;;24.34;29.52;100122.86;103243;1290;61920;-82
2023/12/01 06:39:33;;;;;;;9.30;7.20;;;;;;;24.35;29.50;100127.83;103111;1289;61327;-81
2023/12/01 06:41:59;;;;;;;9.30;7.30;;;;;;;24.34;29.44;100125.20;103172;1289;61405;-81
2023/12/01 06:44:25;;;;;;;9.60;7.40;;;;;;;24.35;29.42;100123.32;103066;1289;61515;-81
2023/12/01 06:46:51;;;;;;;9.30;7.40;;;;;;;24.35;29.51;100116.14;103130;1291;61839;-81
2023/12/01 06:49:17;;;;;;;9.10;7.30;;;;;;;24.36;29.49;100120.55;103272;1289;61912;-81
2023/12/01 06:51:43;;;;;;;10.80;7.00;;;;;;;24.37;29.47;100117.80;103178;1289;61646;-82
2023/12/01 06:54:09;;;;;;;9.00;6.80;;;;;;;24.37;29.43;100106.44;103212;1289;72627;-82
2023/12/01 06:56:37;;;;;;;9.00;6.80;;;;;;;24.37;29.44;100104.83;103163;1291;61486;-82
2023/12/01 06:59:06;;;;;;;9.20;6.80;;;;;;;24.37;29.49;100109.81;103230;1290;61408;-82
2023/12/01 07:01:32;;;;;;;9.70;8.20;;;;;;;24.37;29.40;100110.89;103167;1290;61342;-82
2023/12/01 07:03:57;;;;;;;11.40;8.80;;;;;;;24.38;29.44;100118.40;103155;1291;61457;-82
2023/12/01 07:06:23;;;;;;;9.70;8.20;;;;;;;24.39;29.39;100119.74;103127;1289;61421;-81
2023/12/01 07:08:49;;;;;;;11.70;9.00;;;;;;;24.39;29.46;100116.81;103150;1290;61415;-82
2023/12/01 07:11:16;;;;;;;11.70;8.90;;;;;;;24.39;29.44;100113.24;103249;1289;61449;-81
2023/12/01 07:13:47;;;;;;;10.60;8.20;;;;;;;24.39;29.40;100113.25;103134;1291;72465;-82
2023/12/01 07:16:15;;;;;;;11.10;8.00;;;;;;;24.39;29.37;100123.98;103165;1290;74498;-81
2023/12/01 07:18:43;;;;;;;9.90;7.40;;;;;;;24.40;29.41;100122.84;103135;1290;61456;-82
2023/12/01 07:21:08;;;;;;;8.80;7.50;;;;;;;24.40;29.44;100116.20;103122;1290;61440;-81
2023/12/01 07:23:36;;;;;;;8.00;6.70;;;;;;;24.40;29.39;100117.95;103103;1291;72433;-82
2023/12/01 07:26:03;;;;;;;9.70;7.70;;;;;;;24.40;29.40;100109.69;103111;1294;74409;-81
2023/12/01 07:28:30;;;;;;;9.50;7.60;;;;;;;24.41;29.41;100105.48;103159;1289;61268;-82
2023/12/01 07:30:55;;;;;;;9.50;7.30;;;;;;;24.41;29.41;100106.21;103183;1290;61403;-82
2023/12/01 07:33:21;;;;;;;9.70;7.30;;;;;;;24.41;29.37;100102.58;103302;1289;61933;-81
2023/12/01 07:35:47;;;;;;;10.00;7.30;;;;;;;24.41;29.39;100100.83;102911;1290;295259;-81
2023/12/01 07:38:15;;;;;;;9.30;7.00;;;;;;;24.41;29.38;100098.06;103201;1289;61387;-82
2023/12/01 07:40:41;;;;;;;10.40;7.20;;;;;;;24.42;29.39;100098.59;103237;1289;61415;-82
2023/12/01 07:43:07;;;;;;;9.20;7.50;;;;;;;24.41;29.45;100095.17;103180;1290;61412;-81
2023/12/01 07:45:34;;;;;;;8.70;7.10;;;;;;;24.42;29.42;100089.77;103088;1291;61313;-81
2023/12/01 07:48:00;;;;;;;11.20;8.00;;;;;;;24.42;29.41;100097.45;103188;1295;61806;-82
2023/12/01 07:50:26;;;;;;;9.90;7.30;;;;;;;24.43;29.40;100101.19;103186;1290;61396;-81
2023/12/01 07:52:52;;;;;;;9.20;7.10;;;;;;;24.42;29.44;100102.84;103271;1291;61349;-82
2023/12/01 07:55:19;;;;;;;9.60;7.20;;;;;;;24.43;29.33;100104.09;103110;1290;61925;-81
2023/12/01 07:57:46;;;;;;;10.80;7.30;;;;;;;24.43;29.32;100102.78;103142;1291;74245;-81
2023/12/01 08:00:16;;;;;;;10.20;7.40;;;;;;;24.43;29.40;100102.03;103108;1291;61421;-81
2023/12/01 08:02:46;;;;;;;9.70;7.20;;;;;;;24.43;29.39;100095.05;103162;1290;61224;-81
2023/12/01 08:05:14;;;;;;;9.30;7.10;;;;;;;24.43;29.36;100090.52;103036;1290;72501;-81
2023/12/01 08:07:41;;;;;;;9.10;7.10;;;;;;;24.44;29.42;100092.84;103017;1289;74412;-82
2023/12/01 08:10:08;;;;;;;11.30;7.80;;;;;;;24.44;29.43;100090.67;103108;1290;61390;-82
2023/12/01 08:12:33;;;;;;;8.90;7.00;;;;;;;24.44;29.41;100093.65;103013;1290;61440;-82
2023/12/01 08:14:59;;;;;;;9.00;6.80;;;;;;;24.44;29.41;100101.08;103131;1290;61281;-81
2023/12/01 08:17:25;;;;;;;10.50;6.90;;;;;;;24.44;29.41;100099.31;103176;1290;61414;-81
2023/12/01 08:19:51;;;;;;;9.60;7.20;;;;;;;24.44;29.39;100106.60;103126;1290;61505;-81
2023/12/01 08:22:17;;;;;;;8.50;6.90;;;;;;;24.45;29.34;100106.74;103120;1293;61317;-81
2023/12/01 08:24:45;;;;;;;9.10;6.70;;;;;;;24.45;29.32;100114.48;103093;1289;62166;-81
2023/12/01 08:27:12;;;;;;;;;;;;;;;24.45;29.40;100116.80;103175;1291;61746;-82
2023/12/01 08:29:38;;;;;;;9.20;7.00;;;;;;;24.43;29.41;100113.39;103130;1290;61415;-82
2023/12/01 08:32:05;;;;;;;8.50;6.60;;;;;;;24.44;29.42;100121.57;103154;1290;61351;-81
2023/12/01 08:34:30;;;;;;;8.50;6.60;;;;;;;24.44;29.42;100119.55;103138;1290;61297;-82
2023/12/01 08:36:56;;;;;;;8.40;6.90;;;;;;;24.45;29.45;100114.84;103180;1291;61373;-81
2023/12/01 08:39:22;;;;;;;8.80;6.70;;;;;;;24.45;29.37;100116.29;103197;1290;61425;-81
2023/12/01 08:41:48;;;;;;;9.10;6.70;;;;;;;24.45;29.47;100114.84;103147;1290;61337;-82
2023/12/01 08:44:14;;;;;;;8.70;6.70;;;;;;;24.45;29.38;100117.70;103248;1291;61362;-82
2023/12/01 08:46:40;;;;;;;8.10;6.20;;;;;;;24.45;29.40;100116.08;103179;1289;61312;-82
2023/12/01 08:49:06;;;;;;;8.60;6.50;;;;;;;24.45;29.34;100114.47;103082;1289;61415;-81
2023/12/01 08:51:31;;;;;;;8.80;6.80;;;;;;;24.46;29.46;100116.20;103099;1289;61459;-81
2023/12/01 08:53:57;;;;;;;8.60;6.70;;;;;;;24.46;29.43;100113.48;103059;1290;61399;-81
2023/12/01 08:56:23;;;;;;;9.30;6.90;;;;;;;24.46;29.48;100114.06;103121;1290;61420;-82
2023/12/01 08:58:48;;;;;;;8.10;6.70;;;;;;;24.46;29.42;100113.48;103103;1290;72335;-82
2023/12/01 09:01:17;;;;;;;8.80;6.60;;;;;;;24.47;29.43;100117.57;103215;1290;61400;-82
2023/12/01 09:03:43;;;;;;;8.70;6.50;;;;;;;24.47;29.47;100109.06;103082;1290;61412;-81
2023/12/01 09:06:09;;;;;;;9.70;6.70;;;;;;;24.47;29.40;100107.28;103078;1290;61808;-81
2023/12/01 09:08:34;;;;;;;8.20;6.50;;;;;;;24.47;29.53;100110.48;103086;1296;61469;-81
2023/12/01 09:11:00;;;;;;;7.70;6.40;;;;;;;24.48;29.44;100111.36;103285;1291;61419;-82
2023/12/01 09:13:27;;;;;;;8.60;6.40;;;;;;;24.47;29.45;100105.27;103124;1290;61398;-81
2023/12/01 09:15:53;;;;;;;8.90;6.30;;;;;;;24.48;29.47;100100.91;103129;1289;61689;-81
2023/12/01 09:18:19;;;;;;;7.50;6.30;;;;;;;24.48;29.45;100097.14;103200;1290;61454;-82
2023/12/01 09:20:45;;;;;;;8.60;6.40;;;;;;;24.48;29.57;100100.17;103163;1295;61380;-81
2023/12/01 09:23:11;;;;;;;8.10;6.40;;;;;;;24.48;29.46;100102.64;103120;1292;62304;-81
2023/12/01 09:25:37;;;;;;;10.00;6.60;;;;;;;24.49;29.44;100094.72;102695;1292;61256;-82
2023/12/01 09:28:03;;;;;;;10.10;6.50;;;;;;;24.48;29.49;100097.80;102994;1293;61800;-81
2023/12/01 09:30:28;;;;;;;9.00;6.50;;;;;;;24.49;29.47;100096.67;102984;1297;61367;-82
2023/12/01 09:32:54;;;;;;;9.60;6.50;;;;;;;24.49;29.42;100099.31;102747;1293;61642;-81
2023/12/01 09:35:23;;;;;;;10.40;6.20;;;;;;;24.50;29.41;100094.27;102945;1293;61511;-81
2023/12/01 09:37:50;;;;;;;8.40;6.50;;;;;;;24.50;29.48;100080.52;102785;1293;61458;-81
2023/12/01 09:40:16;;;;;;;7.80;6.10;;;;;;;24.50;29.56;100076.63;102747;1293;61450;-81
2023/12/01 09:42:42;;;;;;;9.80;6.90;;;;;;;24.50;29.55;100077.67;103073;1295;61349;-81
2023/12/01 09:45:09;;;;;;;9.00;6.50;;;;;;;24.50;29.50;100075.34;102742;1293;62509;-82
2023/12/01 09:47:39;;;;;;;8.50;6.70;;;;;;;24.50;29.51;100079.80;103206;1293;61515;-82
2023/12/01 09:50:05;;;;;;;9.60;6.90;;;;;;;24.50;29.44;100081.61;102745;1294;63901;-82
2023/12/01 09:52:31;;;;;;;8.10;6.30;;;;;;;24.50;29.46;100079.05;102722;1293;75455;-81
2023/12/01 09:54:57;;;;;;;8.80;6.30;;;;;;;24.50;29.60;100070.96;103230;1290;62005;-81
2023/12/01 09:57:23;;;;;;;8.10;6.00;;;;;;;24.51;29.58;100063.21;103480;1288;61394;-82
2023/12/01 09:59:49;;;;;;;9.40;6.50;;;;;;;24.51;29.53;100059.95;103248;1289;61361;-82
2023/12/01 10:02:15;;;;;;;8.10;6.40;;;;;;;24.52;29.52;100051.05;103218;1294;61481;-81
2023/12/01 10:04:43;;;;;;;8.90;6.60;;;;;;;24.51;29.51;100043.53;103223;1288;61380;-82
2023/12/01 10:07:08;;;;;;;8.70;6.30;;;;;;;24.52;29.50;100041.65;103266;1289;61400;-81
2023/12/01 10:09:35;;;;;;;9.30;7.10;;;;;;;24.53;29.51;100039.09;103456;1288;61401;-81
2023/12/01 10:12:10;;;;;;;8.90;6.70;;;;;;;24.53;29.55;100041.36;103273;1288;61488;-82
2023/12/01 10:14:36;;;;;;;8.50;6.10;;;;;;;24.53;29.52;100045.14;103141;1288;61343;-82
2023/12/01 10:17:04;;;;;;;8.80;6.50;;;;;;;24.54;29.52;100056.61;103562;1289;61381;-82
2023/12/01 10:19:49;;;;;;;8.00;6.20;;;;;;;24.55;29.51;100064.27;103437;1297;72471;-82
2023/12/01 10:22:19;;;;;;;9.10;6.30;;;;;;;24.54;29.50;100061.77;103458;1290;74520;-82
2023/12/01 10:25:00;;;;;;;9.10;6.80;;;;;;;24.55;29.57;100049.67;103494;1289;61420;-81
2023/12/01 10:27:29;;;;;;;10.20;6.50;;;;;;;24.55;29.54;100047.08;103402;1290;61279;-82
2023/12/01 10:30:12;;;;;;;7.90;6.10;;;;;;;24.55;29.58;100040.79;103519;1289;72457;-81
2023/12/01 10:32:37;;;;;;;9.50;6.70;;;;;;;24.56;29.49;100039.27;103124;1288;74416;-81
2023/12/01 10:35:05;;;;;;;7.80;6.00;;;;;;;24.57;29.52;100042.81;103291;1292;61325;-82
2023/12/01 10:37:31;;;;;;;8.70;6.70;;;;;;;24.57;29.55;100041.84;103178;1290;61409;-81
2023/12/01 10:39:56;;;;;;;8.80;6.80;;;;;;;24.58;29.45;100036.05;103194;1293;61445;-81
2023/12/01 10:42:23;;;;;;;8.20;6.20;;;;;;;24.58;29.60;100045.23;103565;1295;61384;-82
2023/12/01 10:44:49;;;;;;;8.40;6.80;;;;;;;24.58;29.47;100046.24;103551;1289;61511;-82
2023/12/01 10:47:15;;;;;;;8.80;6.60;;;;;;;24.58;29.57;100042.15;103299;1290;62373;-82
2023/12/01 10:49:41;;;;;;;8.80;6.20;;;;;;;24.58;29.56;100036.15;103274;1295;61357;-81
2023/12/01 10:52:09;;;;;;;8.90;6.70;;;;;;;24.59;29.51;100046.72;103264;1291;61379;-82
2023/12/01 10:54:34;;;;;;;8.10;6.50;;;;;;;24.59;29.55;100045.08;103305;1290;61366;-82
2023/12/01 10:57:26;;;;;;;8.20;6.40;;;;;;;24.60;29.54;100045.58;103127;1290;61487;-82
2023/12/01 10:59:52;;;;;;;9.40;6.20;;;;;;;24.60;29.39;100045.55;103111;1290;72561;-81
2023/12/01 11:02:18;;;;;;;9.80;6.50;;;;;;;24.60;29.50;100050.74;103098;1290;61401;-81
2023/12/01 11:04:46;;;;;;;10.20;6.20;;;;;;;24.60;29.55;100045.02;103226;1291;61328;-81
2023/12/01 11:07:33;;;;;;;8.20;6.60;;;;;;;24.60;29.54;100046.76;103237;1289;62088;-82
2023/12/01 11:10:18;;;;;;;8.60;6.40;;;;;;;24.60;29.51;100048.41;103110;1288;63935;-82
2023/12/01 11:13:04;;;;;;;9.20;7.20;;;;;;;24.60;29.52;100039.75;103111;1290;74591;-82
2023/12/01 11:15:31;;;;;;;9.70;6.40;;;;;;;24.60;29.54;100030.81;103102;1289;61372;-82